createdAt,value
2022-11-30T00:00:59.413Z,2.90
2022-11-30T00:03:26.329Z,2.10
2022-11-30T00:05:52.917Z,2.50
2022-11-30T00:08:19.367Z,2.33
2022-11-30T00:10:45.820Z,3.10
2022-11-30T00:13:12.316Z,2.40
2022-11-30T00:15:39.157Z,2.38
2022-11-30T00:18:05.700Z,2.50
2022-11-30T00:20:32.593Z,3.13
2022-11-30T00:22:59.016Z,2.65
2022-11-30T00:25:25.823Z,2.95
2022-11-30T00:27:52.589Z,2.80
2022-11-30T00:30:19.279Z,2.60
2022-11-30T00:32:45.695Z,2.63
2022-11-30T00:35:12.207Z,2.83
2022-11-30T00:37:38.708Z,2.95
2022-11-30T00:40:06.322Z,2.35
2022-11-30T00:42:32.830Z,3.00
2022-11-30T00:44:59.264Z,2.80
2022-11-30T00:47:25.700Z,2.72
2022-11-30T00:49:52.160Z,2.35
2022-11-30T00:52:18.640Z,1.98
2022-11-30T00:54:45.265Z,2.53
2022-11-30T00:57:12.183Z,3.22
2022-11-30T00:59:38.599Z,3.17
2022-11-30T01:02:05.110Z,2.60
2022-11-30T01:04:31.612Z,3.13
2022-11-30T01:06:58.039Z,2.85
2022-11-30T01:09:24.486Z,3.03
2022-11-30T01:11:50.941Z,2.70
2022-11-30T01:14:17.734Z,2.90
2022-11-30T01:16:44.325Z,3.08
2022-11-30T01:19:10.787Z,2.65
2022-11-30T01:21:37.320Z,2.40
2022-11-30T01:24:03.944Z,2.83
2022-11-30T01:26:30.351Z,2.33
2022-11-30T01:28:56.781Z,2.50
2022-11-30T01:31:24.948Z,2.53
2022-11-30T01:33:53.764Z,2.35
2022-11-30T01:36:23.999Z,2.25
2022-11-30T01:38:53.951Z,2.55
2022-11-30T01:41:27.070Z,2.35
2022-11-30T01:44:20.171Z,2.53
2022-11-30T01:47:00.678Z,2.28
2022-11-30T01:49:33.368Z,2.83
2022-11-30T01:52:04.253Z,2.47
2022-11-30T01:54:37.343Z,2.28
2022-11-30T01:57:12.721Z,2.95
2022-11-30T01:59:39.443Z,2.58
2022-11-30T02:02:05.987Z,2.33
2022-11-30T02:04:34.804Z,2.33
2022-11-30T02:07:04.568Z,2.10
2022-11-30T02:09:35.799Z,2.00
2022-11-30T02:12:05.421Z,1.77
2022-11-30T02:14:40.789Z,2.05
2022-11-30T02:17:31.765Z,1.90
2022-11-30T02:20:20.313Z,1.92
2022-11-30T02:23:27.566Z,2.17
2022-11-30T02:26:22.704Z,2.40
2022-11-30T02:29:03.358Z,2.20
2022-11-30T02:31:38.610Z,1.83
2022-11-30T02:34:08.705Z,2.25
2022-11-30T02:36:36.699Z,2.08
2022-11-30T02:39:04.708Z,1.77
2022-11-30T02:41:39.107Z,1.70
2022-11-30T02:44:08.605Z,1.65
2022-11-30T02:46:59.597Z,1.63
2022-11-30T02:50:02.138Z,2.00
2022-11-30T02:52:31.822Z,2.05
2022-11-30T02:55:03.208Z,1.70
2022-11-30T02:57:29.705Z,2.20
2022-11-30T02:59:57.310Z,2.40
2022-11-30T03:02:23.754Z,2.13
2022-11-30T03:04:50.440Z,2.22
2022-11-30T03:07:16.990Z,2.45
2022-11-30T03:09:43.465Z,2.00
2022-11-30T03:12:09.965Z,2.28
2022-11-30T03:14:36.390Z,2.75
2022-11-30T03:17:02.845Z,1.75
2022-11-30T03:19:29.268Z,2.50
2022-11-30T03:21:55.685Z,2.20
2022-11-30T03:24:22.240Z,2.80
2022-11-30T03:26:48.691Z,2.33
2022-11-30T03:29:15.164Z,2.17
2022-11-30T03:31:41.597Z,2.25
2022-11-30T03:34:08.122Z,2.08
2022-11-30T03:36:34.664Z,3.30
2022-11-30T03:39:01.220Z,2.90
2022-11-30T03:41:27.917Z,2.80
2022-11-30T03:43:55.530Z,2.65
2022-11-30T03:46:22.412Z,2.85
2022-11-30T03:48:49.037Z,2.90
2022-11-30T03:51:15.444Z,3.55
2022-11-30T03:53:42.229Z,3.58
2022-11-30T03:56:10.371Z,2.80
2022-11-30T03:58:36.894Z,2.63
2022-11-30T04:01:23.505Z,2.70
2022-11-30T04:03:53.359Z,3.25
2022-11-30T04:06:21.345Z,3.15
2022-11-30T04:08:48.060Z,2.60
2022-11-30T04:11:15.031Z,3.13
2022-11-30T04:13:42.632Z,3.08
2022-11-30T04:16:09.558Z,3.40
2022-11-30T04:18:37.055Z,3.03
2022-11-30T04:21:05.412Z,4.18
2022-11-30T04:23:37.912Z,3.03
2022-11-30T04:26:06.996Z,3.72
2022-11-30T04:28:34.189Z,3.75
2022-11-30T04:31:01.460Z,3.30
2022-11-30T04:33:28.577Z,2.92
2022-11-30T04:35:57.205Z,3.65
2022-11-30T04:38:24.347Z,3.35
2022-11-30T04:40:51.546Z,2.97
2022-11-30T04:43:18.029Z,2.67
2022-11-30T04:45:45.055Z,3.20
2022-11-30T04:48:11.932Z,3.05
2022-11-30T04:50:39.351Z,3.63
2022-11-30T04:53:05.877Z,3.28
2022-11-30T04:55:32.380Z,3.45
2022-11-30T04:57:58.856Z,2.45
2022-11-30T05:00:25.468Z,2.83
2022-11-30T05:02:53.155Z,3.50
2022-11-30T05:05:20.370Z,2.30
2022-11-30T05:07:51.353Z,2.85
2022-11-30T05:10:18.032Z,2.40
2022-11-30T05:12:44.857Z,2.20
2022-11-30T05:15:11.385Z,2.38
2022-11-30T05:17:37.936Z,2.45
2022-11-30T05:20:04.977Z,2.58
2022-11-30T05:22:31.414Z,2.83
2022-11-30T05:24:57.830Z,2.92
2022-11-30T05:27:24.251Z,2.45
2022-11-30T05:29:50.659Z,2.38
2022-11-30T05:32:17.081Z,3.03
2022-11-30T05:34:50.532Z,2.92
2022-11-30T05:37:18.262Z,2.97
2022-11-30T05:39:44.689Z,3.03
2022-11-30T05:42:11.157Z,2.55
2022-11-30T05:44:37.595Z,2.75
2022-11-30T05:47:04.130Z,2.30
2022-11-30T05:49:30.621Z,2.00
2022-11-30T05:51:57.029Z,2.40
2022-11-30T05:54:23.425Z,2.20
2022-11-30T05:56:54.457Z,2.30
2022-11-30T05:59:22.054Z,2.38
2022-11-30T06:01:49.125Z,2.58
2022-11-30T06:04:15.861Z,2.85
2022-11-30T06:06:42.285Z,2.80
2022-11-30T06:09:08.849Z,2.80
2022-11-30T06:11:35.260Z,2.78
2022-11-30T06:14:02.063Z,2.63
2022-11-30T06:16:28.564Z,2.75
2022-11-30T06:18:55.142Z,2.53
2022-11-30T06:21:24.728Z,2.78
2022-11-30T06:23:52.305Z,2.95
2022-11-30T06:26:18.824Z,2.67
2022-11-30T06:28:48.163Z,2.63
2022-11-30T06:31:15.680Z,3.20
2022-11-30T06:33:42.148Z,3.00
2022-11-30T06:36:09.088Z,2.78
2022-11-30T06:38:35.501Z,3.10
2022-11-30T06:41:07.269Z,3.45
2022-11-30T06:43:38.747Z,3.00
2022-11-30T06:46:06.906Z,3.90
2022-11-30T06:48:34.544Z,3.38
2022-11-30T06:51:01.296Z,3.58
2022-11-30T06:53:27.725Z,3.55
2022-11-30T06:55:54.136Z,3.20
2022-11-30T06:58:20.553Z,3.42
2022-11-30T07:00:47.040Z,3.85
2022-11-30T07:03:13.678Z,3.78
2022-11-30T07:05:45.105Z,4.20
2022-11-30T07:08:14.045Z,3.55
2022-11-30T07:10:46.034Z,3.55
2022-11-30T07:13:14.264Z,3.20
2022-11-30T07:15:41.974Z,3.80
2022-11-30T07:18:09.913Z,3.28
2022-11-30T07:20:37.974Z,3.42
2022-11-30T07:23:23.630Z,3.22
2022-11-30T07:26:07.058Z,3.08
2022-11-30T07:28:35.991Z,3.28
2022-11-30T07:31:16.468Z,5.03
2022-11-30T07:33:43.372Z,3.58
2022-11-30T07:36:10.519Z,3.50
2022-11-30T07:38:37.344Z,3.50
2022-11-30T07:41:04.412Z,3.50
2022-11-30T07:43:31.214Z,3.47
2022-11-30T07:45:57.635Z,3.67
2022-11-30T07:48:24.068Z,3.78
2022-11-30T07:50:50.663Z,3.85
2022-11-30T07:53:17.715Z,3.50
2022-11-30T07:55:44.350Z,3.20
2022-11-30T07:58:15.813Z,3.67
2022-11-30T08:00:43.645Z,3.65
2022-11-30T08:03:10.267Z,4.03
2022-11-30T08:05:36.686Z,4.38
2022-11-30T08:08:03.217Z,3.60
2022-11-30T08:10:29.677Z,3.42
2022-11-30T08:12:56.080Z,4.10
2022-11-30T08:15:26.141Z,4.32
2022-11-30T08:18:00.134Z,4.85
2022-11-30T08:20:26.517Z,5.07
2022-11-30T08:22:52.943Z,4.35
2022-11-30T08:25:19.393Z,4.10
2022-11-30T08:27:45.801Z,4.97
2022-11-30T08:30:12.708Z,4.35
2022-11-30T08:32:39.108Z,4.25
2022-11-30T08:35:06.013Z,4.13
2022-11-30T08:37:35.298Z,4.50
2022-11-30T08:40:01.664Z,4.20
2022-11-30T08:42:28.102Z,4.22
2022-11-30T08:44:54.496Z,4.65
2022-11-30T08:47:20.944Z,4.45
2022-11-30T08:49:48.029Z,4.88
2022-11-30T08:55:00.843Z,4.50
2022-11-30T08:57:27.301Z,4.93
2022-11-30T08:59:53.935Z,5.43
2022-11-30T09:02:20.421Z,4.50
2022-11-30T09:04:48.948Z,5.07
2022-11-30T09:07:15.780Z,4.72
2022-11-30T09:09:42.194Z,4.35
2022-11-30T09:12:08.840Z,4.30
2022-11-30T09:14:35.262Z,4.28
2022-11-30T09:17:01.705Z,4.30
2022-11-30T09:19:28.106Z,4.68
2022-11-30T09:21:54.588Z,5.32
2022-11-30T09:24:21.144Z,5.03
2022-11-30T09:26:47.792Z,4.97
2022-11-30T09:29:14.401Z,4.38
2022-11-30T09:31:40.787Z,4.82
2022-11-30T09:34:07.165Z,4.45
2022-11-30T09:36:33.966Z,4.65
2022-11-30T09:39:00.434Z,4.40
2022-11-30T09:41:36.861Z,5.78
2022-11-30T09:47:12.560Z,4.88
2022-11-30T09:49:44.190Z,4.60
2022-11-30T09:52:18.636Z,4.55
2022-11-30T09:54:47.851Z,5.40
2022-11-30T09:57:26.580Z,4.55
2022-11-30T09:59:56.971Z,5.07
2022-11-30T10:02:28.966Z,4.80
2022-11-30T10:04:55.873Z,4.90
2022-11-30T10:07:43.730Z,5.70
2022-11-30T10:10:37.475Z,4.97
2022-11-30T10:13:23.779Z,5.07
2022-11-30T10:16:02.421Z,6.28
2022-11-30T10:18:45.186Z,5.45
2022-11-30T10:21:26.315Z,6.18
2022-11-30T10:23:53.850Z,5.47
2022-11-30T10:26:35.373Z,5.32
2022-11-30T10:29:16.592Z,5.45
2022-11-30T10:31:43.908Z,6.68
2022-11-30T10:34:35.653Z,5.93
2022-11-30T10:37:19.602Z,6.15
2022-11-30T10:40:03.111Z,5.35
2022-11-30T10:42:47.940Z,5.18
2022-11-30T10:45:20.111Z,5.20
2022-11-30T10:48:00.806Z,5.00
2022-11-30T10:50:30.133Z,4.97
2022-11-30T10:53:00.653Z,4.20
2022-11-30T10:55:31.643Z,4.97
2022-11-30T10:58:04.084Z,5.80
2022-11-30T11:00:30.541Z,5.03
2022-11-30T11:02:57.187Z,6.07
2022-11-30T11:05:28.834Z,4.97
2022-11-30T11:08:06.391Z,4.75
2022-11-30T11:10:35.536Z,4.75
2022-11-30T11:13:02.537Z,5.60
2022-11-30T11:15:31.434Z,4.47
2022-11-30T11:18:16.239Z,3.95
2022-11-30T11:20:43.376Z,3.97
2022-11-30T11:23:22.846Z,3.75
2022-11-30T11:25:53.056Z,3.85
2022-11-30T11:28:21.929Z,5.20
2022-11-30T11:30:48.632Z,3.78
2022-11-30T11:33:15.078Z,3.90
2022-11-30T11:35:44.311Z,7.00
2022-11-30T11:38:20.449Z,9.98
2022-11-30T11:41:05.938Z,4.22
2022-11-30T11:43:35.074Z,3.55
2022-11-30T11:46:21.882Z,3.55
2022-11-30T11:51:38.268Z,3.50
2022-11-30T11:54:27.738Z,3.10
2022-11-30T11:56:56.510Z,3.90
2022-11-30T11:59:39.065Z,3.00
2022-11-30T12:02:19.891Z,4.45
2022-11-30T12:04:48.324Z,4.80
2022-11-30T12:07:36.945Z,3.58
2022-11-30T12:10:50.685Z,4.15
2022-11-30T12:13:19.583Z,3.90
2022-11-30T12:15:58.518Z,3.95
2022-11-30T12:18:38.659Z,3.17
2022-11-30T12:21:13.478Z,2.80
2022-11-30T12:23:47.022Z,2.95
2022-11-30T12:26:29.118Z,4.50
2022-11-30T12:29:13.429Z,2.88
2022-11-30T12:32:24.761Z,3.28
2022-11-30T12:35:17.050Z,3.00
2022-11-30T12:38:11.005Z,4.10
2022-11-30T12:40:40.374Z,3.60
2022-11-30T12:43:16.616Z,3.90
2022-11-30T12:45:47.526Z,3.50
2022-11-30T12:48:34.972Z,3.40
2022-11-30T12:51:07.996Z,3.42
2022-11-30T12:53:52.751Z,3.20
2022-11-30T12:56:34.613Z,2.42
2022-11-30T12:59:03.770Z,3.00
2022-11-30T13:01:52.210Z,2.70
2022-11-30T13:04:32.908Z,2.17
2022-11-30T13:07:25.309Z,2.67
2022-11-30T13:10:02.858Z,3.28
2022-11-30T13:12:36.997Z,3.03
2022-11-30T13:15:16.660Z,3.03
2022-11-30T13:17:44.308Z,3.60
2022-11-30T13:20:23.847Z,3.30
2022-11-30T13:22:58.968Z,3.50
2022-11-30T13:26:08.715Z,3.20
2022-11-30T13:28:41.781Z,3.10
2022-11-30T13:31:11.751Z,3.28
2022-11-30T13:33:46.437Z,2.70
2022-11-30T13:36:31.610Z,2.40
2022-11-30T13:39:20.386Z,3.00
2022-11-30T13:42:10.447Z,2.40
2022-11-30T13:44:40.502Z,2.35
2022-11-30T13:47:17.880Z,2.65
2022-11-30T13:49:44.781Z,2.80
2022-11-30T13:52:23.998Z,3.08
2022-11-30T13:54:57.161Z,3.78
2022-11-30T13:57:29.755Z,3.35
2022-11-30T13:59:57.903Z,3.42
2022-11-30T14:02:33.337Z,3.55
2022-11-30T14:05:17.783Z,2.75
2022-11-30T14:08:08.155Z,2.40
2022-11-30T14:10:40.000Z,2.60
2022-11-30T14:13:09.993Z,2.53
2022-11-30T14:15:39.487Z,2.75
2022-11-30T14:18:08.851Z,2.22
2022-11-30T14:20:45.826Z,2.65
2022-11-30T14:23:15.744Z,2.30
2022-11-30T14:25:48.103Z,2.60
2022-11-30T14:28:33.132Z,2.28
2022-11-30T14:31:00.452Z,2.10
2022-11-30T14:33:45.894Z,2.63
2022-11-30T14:36:12.978Z,2.33
2022-11-30T14:38:42.143Z,2.65
2022-11-30T14:41:25.157Z,2.47
2022-11-30T14:44:10.569Z,2.13
2022-11-30T14:46:37.112Z,2.47
2022-11-30T14:49:15.143Z,3.67
2022-11-30T14:51:46.232Z,2.65
2022-11-30T14:54:38.563Z,2.80
2022-11-30T14:57:19.277Z,3.20
2022-11-30T14:59:49.929Z,3.13
2022-11-30T15:02:37.322Z,3.53
2022-11-30T15:05:07.276Z,4.47
2022-11-30T15:07:35.440Z,3.22
2022-11-30T15:10:05.570Z,3.55
2022-11-30T15:12:33.059Z,3.70
2022-11-30T15:15:05.732Z,3.42
2022-11-30T15:17:32.389Z,2.88
2022-11-30T15:19:58.764Z,3.28
2022-11-30T15:22:25.158Z,2.83
2022-11-30T15:24:51.546Z,2.58
2022-11-30T15:27:23.619Z,2.72
2022-11-30T15:30:00.772Z,2.10
2022-11-30T15:32:28.632Z,2.28
2022-11-30T15:34:57.749Z,2.25
2022-11-30T15:37:35.437Z,1.83
2022-11-30T15:40:05.610Z,1.70
2022-11-30T15:42:41.240Z,1.70
2022-11-30T15:45:22.510Z,2.05
2022-11-30T15:47:49.836Z,1.70
2022-11-30T15:50:31.534Z,2.30
2022-11-30T15:53:22.316Z,2.22
2022-11-30T15:55:57.217Z,2.72
2022-11-30T15:58:46.213Z,3.13
2022-11-30T16:01:17.192Z,2.55
2022-11-30T16:03:55.602Z,2.55
2022-11-30T16:06:24.153Z,3.80
2022-11-30T16:08:51.222Z,2.90
2022-11-30T16:11:18.741Z,2.58
2022-11-30T16:13:47.213Z,2.47
2022-11-30T16:16:19.664Z,2.33
2022-11-30T16:18:46.347Z,2.28
2022-11-30T16:21:16.374Z,2.45
2022-11-30T16:23:43.647Z,3.00
2022-11-30T16:26:36.018Z,3.08
2022-11-30T16:29:04.396Z,2.42
2022-11-30T16:31:30.855Z,2.38
2022-11-30T16:33:57.325Z,2.10
2022-11-30T16:36:24.062Z,2.28
2022-11-30T16:38:51.798Z,5.03
2022-11-30T16:41:26.511Z,3.00
2022-11-30T16:43:55.276Z,5.35
2022-11-30T16:46:27.004Z,4.70
2022-11-30T16:48:54.184Z,6.43
2022-11-30T16:51:24.845Z,5.22
2022-11-30T16:53:51.777Z,6.05
2022-11-30T16:56:18.231Z,6.95
2022-11-30T16:58:45.372Z,3.97
2022-11-30T17:01:27.932Z,3.30
2022-11-30T17:03:56.796Z,3.50
2022-11-30T17:06:24.026Z,2.67
2022-11-30T17:08:50.718Z,2.75
2022-11-30T17:11:29.235Z,3.42
2022-11-30T17:13:55.935Z,2.58
2022-11-30T17:16:22.432Z,2.83
2022-11-30T17:18:49.016Z,2.88
2022-11-30T17:21:18.212Z,3.17
2022-11-30T17:23:45.039Z,3.40
2022-11-30T17:26:12.919Z,3.30
2022-11-30T17:28:41.068Z,3.22
2022-11-30T17:31:08.594Z,3.03
2022-11-30T17:33:35.390Z,3.47
2022-11-30T17:36:05.539Z,3.15
2022-11-30T17:38:34.444Z,5.18
2022-11-30T17:41:04.675Z,4.45
2022-11-30T17:43:31.356Z,4.70
2022-11-30T17:45:57.931Z,4.22
2022-11-30T17:48:24.396Z,4.25
2022-11-30T17:50:54.234Z,4.05
2022-11-30T17:53:20.749Z,4.03
2022-11-30T17:55:48.099Z,3.95
2022-11-30T17:58:14.655Z,3.42
2022-11-30T18:00:41.313Z,3.72
2022-11-30T18:03:07.772Z,4.05
2022-11-30T18:05:34.199Z,3.60
2022-11-30T18:08:00.670Z,3.30
2022-11-30T18:10:27.114Z,3.90
2022-11-30T18:12:53.592Z,4.13
2022-11-30T18:15:19.982Z,3.25
2022-11-30T18:17:46.393Z,3.58
2022-11-30T18:20:12.930Z,3.10
2022-11-30T18:22:39.448Z,3.40
2022-11-30T18:25:06.340Z,3.65
2022-11-30T18:27:32.757Z,4.50
2022-11-30T18:29:59.146Z,9.57
2022-11-30T18:32:25.570Z,6.35
2022-11-30T18:34:52.072Z,7.75
2022-11-30T18:37:18.560Z,9.02
2022-11-30T18:39:44.986Z,10.30
2022-11-30T18:42:11.423Z,7.32
2022-11-30T18:44:37.847Z,4.85
2022-11-30T18:47:04.456Z,5.20
2022-11-30T18:49:30.970Z,5.80
2022-11-30T18:51:57.378Z,7.82
2022-11-30T18:54:25.083Z,6.03
2022-11-30T18:56:51.498Z,5.45
2022-11-30T18:59:18.088Z,6.28
2022-11-30T19:01:44.804Z,5.63
2022-11-30T19:04:11.548Z,5.20
2022-11-30T19:06:39.854Z,7.10
2022-11-30T19:09:08.662Z,6.80
2022-11-30T19:11:36.163Z,5.45
2022-11-30T19:14:02.672Z,5.03
2022-11-30T19:16:30.672Z,4.55
2022-11-30T19:19:00.711Z,4.93
2022-11-30T19:21:28.053Z,4.43
2022-11-30T19:23:56.176Z,5.35
2022-11-30T19:26:22.589Z,4.82
2022-11-30T19:28:49.124Z,5.15
2022-11-30T19:31:18.111Z,5.57
2022-11-30T19:33:47.669Z,5.68
2022-11-30T19:36:16.915Z,4.70
2022-11-30T19:38:43.892Z,5.13
2022-11-30T19:41:12.504Z,5.32
2022-11-30T19:43:39.329Z,5.13
2022-11-30T19:46:12.262Z,5.30
2022-11-30T19:48:39.668Z,5.25
2022-11-30T19:51:13.243Z,5.30
2022-11-30T19:53:42.621Z,5.07
2022-11-30T19:56:13.659Z,4.97
2022-11-30T19:58:40.762Z,5.82
2022-11-30T20:01:12.275Z,5.95
2022-11-30T20:03:38.751Z,5.55
2022-11-30T20:06:06.333Z,5.13
2022-11-30T20:08:32.778Z,5.47
2022-11-30T20:10:59.163Z,5.38
2022-11-30T20:13:25.620Z,5.30
2022-11-30T20:15:52.062Z,4.85
2022-11-30T20:18:18.498Z,5.95
2022-11-30T20:20:44.933Z,5.35
2022-11-30T20:23:11.322Z,5.43
2022-11-30T20:25:37.718Z,5.80
2022-11-30T20:28:08.210Z,6.72
2022-11-30T20:30:36.134Z,5.60
2022-11-30T20:33:02.583Z,5.95
2022-11-30T20:35:28.974Z,5.78
2022-11-30T20:37:55.449Z,5.57
2022-11-30T20:40:21.840Z,5.05
2022-11-30T20:42:48.228Z,5.53
2022-11-30T20:45:14.703Z,5.60
2022-11-30T20:47:41.145Z,5.15
2022-11-30T20:50:07.733Z,4.97
2022-11-30T20:52:34.192Z,5.15
2022-11-30T20:55:00.703Z,4.93
2022-11-30T20:57:27.113Z,5.88
2022-11-30T20:59:53.642Z,4.47
2022-11-30T21:02:20.149Z,5.25
2022-11-30T21:04:47.057Z,5.13
2022-11-30T21:07:13.636Z,5.97
2022-11-30T21:09:40.055Z,5.32
2022-11-30T21:12:07.511Z,5.25
2022-11-30T21:14:34.140Z,5.22
2022-11-30T21:17:00.613Z,4.88
2022-11-30T21:19:27.059Z,5.13
2022-11-30T21:21:55.411Z,5.47
2022-11-30T21:24:21.958Z,4.88
2022-11-30T21:26:48.357Z,5.47
2022-11-30T21:29:17.273Z,5.10
2022-11-30T21:31:44.735Z,4.72
2022-11-30T21:34:11.586Z,6.30
2022-11-30T21:36:38.305Z,5.53
2022-11-30T21:39:06.996Z,5.10
2022-11-30T21:41:38.828Z,5.47
2022-11-30T21:44:07.465Z,4.78
2022-11-30T21:46:34.192Z,5.75
2022-11-30T21:49:00.904Z,6.05
2022-11-30T21:51:29.238Z,6.53
2022-11-30T21:53:59.592Z,6.05
2022-11-30T21:56:32.444Z,6.88
2022-11-30T21:58:59.564Z,5.68
2022-11-30T22:01:29.320Z,6.15
2022-11-30T22:03:58.879Z,6.25
2022-11-30T22:06:27.664Z,5.50
2022-11-30T22:08:57.448Z,5.75
2022-11-30T22:11:24.148Z,6.88
2022-11-30T22:13:52.203Z,5.35
2022-11-30T22:16:19.373Z,5.95
2022-11-30T22:18:46.429Z,5.78
2022-11-30T22:21:15.256Z,6.25
2022-11-30T22:23:44.874Z,4.90
2022-11-30T22:26:17.654Z,6.00
2022-11-30T22:28:46.476Z,5.78
2022-11-30T22:31:14.882Z,5.40
2022-11-30T22:33:43.156Z,5.90
2022-11-30T22:36:18.270Z,5.75
2022-11-30T22:38:45.359Z,5.70
2022-11-30T22:41:14.735Z,5.47
2022-11-30T22:43:42.533Z,4.90
2022-11-30T22:46:12.448Z,5.20
2022-11-30T22:48:39.841Z,5.32
2022-11-30T22:51:08.982Z,6.70
2022-11-30T22:53:36.722Z,6.22
2022-11-30T22:56:05.230Z,5.35
2022-11-30T22:58:32.187Z,5.43
2022-11-30T23:01:06.665Z,5.70
2022-11-30T23:03:33.116Z,5.30
2022-11-30T23:05:59.580Z,5.38
2022-11-30T23:08:26.076Z,5.93
2022-11-30T23:10:57.334Z,5.35
2022-11-30T23:13:24.716Z,5.25
2022-11-30T23:15:52.964Z,5.78
2022-11-30T23:18:20.103Z,5.35
2022-11-30T23:20:46.488Z,5.22
2022-11-30T23:23:13.135Z,5.75
2022-11-30T23:25:39.507Z,5.75
2022-11-30T23:28:05.936Z,5.13
2022-11-30T23:30:32.908Z,5.35
2022-11-30T23:32:59.301Z,5.18
2022-11-30T23:35:25.765Z,5.25
2022-11-30T23:37:52.542Z,5.45
2022-11-30T23:40:19.153Z,6.05
2022-11-30T23:42:45.623Z,4.53
2022-11-30T23:45:12.040Z,5.05
2022-11-30T23:47:38.576Z,5.63
2022-11-30T23:50:05.920Z,4.93
2022-11-30T23:52:32.342Z,5.43
2022-11-30T23:54:58.747Z,6.65
2022-11-30T23:57:25.162Z,5.63
2022-11-30T23:59:51.565Z,5.78
